Time;durP1;ratioP1;P1;durP2;ratioP2;P2;SDS_P1;SDS_P2;PMS_P1;PMS_P2;Temp;Humidity;BMP_temperature;BMP_pressure;BME280_temperature;BME280_humidity;BME280_pressure;Samples;Min_cycle;Max_cycle;Signal;HPM_P1;HPM_P2
2021/10/11 18:19:19;;;;;;;10.35;7.3;;;;;;;8.92;48.71875;95825.13;;;;
2021/10/11 18:20:19;;;;;;;10.35;7.3;;;;;;;8.92;48.71875;95825.13;;;;
2021/10/11 18:21:20;;;;;;;10.35;7.3;;;;;;;8.92;48.71875;95825.13;;;;
2021/10/11 18:22:21;;;;;;;10.35;7.3;;;;;;;8.92;48.71875;95825.13;;;;
2021/10/11 18:23:21;;;;;;;10.35;7.3;;;;;;;8.92;48.71875;95825.13;;;;
2021/10/11 18:24:22;;;;;;;10.35;7.3;;;;;;;8.92;48.71875;95825.13;;;;
2021/10/11 18:25:23;;;;;;;10.35;7.3;;;;;;;8.92;48.71875;95825.13;;;;
2021/10/11 18:26:23;;;;;;;10.35;7.3;;;;;;;8.92;48.71875;95825.13;;;;
2021/10/11 18:27:24;;;;;;;10.35;7.3;;;;;;;8.92;48.71875;95825.13;;;;
2021/10/11 18:28:25;;;;;;;10.35;7.3;;;;;;;8.92;48.71875;95825.13;;;;
2021/10/11 18:29:26;;;;;;;10.4;6.849999;;;;;;;8.9;49.22168;95838.39;;;;
2021/10/11 18:30:27;;;;;;;10.4;6.849999;;;;;;;8.9;49.22168;95838.39;;;;
2021/10/11 18:31:27;;;;;;;10.4;6.849999;;;;;;;8.9;49.22168;95838.39;;;;
2021/10/11 18:32:28;;;;;;;10.4;6.849999;;;;;;;8.9;49.22168;95838.39;;;;
2021/10/11 18:33:32;;;;;;;10.4;6.849999;;;;;;;8.9;49.22168;95838.39;;;;
2021/10/11 18:34:33;;;;;;;10.4;6.849999;;;;;;;8.9;49.22168;95838.39;;;;
2021/10/11 18:35:33;;;;;;;10.4;6.849999;;;;;;;8.9;49.22168;95838.39;;;;
2021/10/11 18:36:34;;;;;;;10.4;6.849999;;;;;;;8.9;49.22168;95838.39;;;;
2021/10/11 18:37:35;;;;;;;10.4;6.849999;;;;;;;8.9;49.22168;95838.39;;;;
2021/10/11 18:38:36;;;;;;;10.4;6.849999;;;;;;;8.9;49.22168;95838.39;;;;
2021/10/11 18:39:37;;;;;;;10.4;6.849999;;;;;;;8.9;49.22168;95838.39;;;;
2021/10/11 18:40:37;;;;;;;8.950001;6.2;;;;;;;8.8;49.54395;95842.46;;;;
2021/10/11 18:41:38;;;;;;;8.950001;6.2;;;;;;;8.8;49.54395;95842.46;;;;
2021/10/11 18:42:38;;;;;;;8.950001;6.2;;;;;;;8.8;49.54395;95842.46;;;;
2021/10/11 18:43:39;;;;;;;8.950001;6.2;;;;;;;8.8;49.54395;95842.46;;;;
2021/10/11 18:44:40;;;;;;;8.950001;6.2;;;;;;;8.8;49.54395;95842.46;;;;
2021/10/11 18:45:41;;;;;;;8.950001;6.2;;;;;;;8.8;49.54395;95842.46;;;;
2021/10/11 18:46:42;;;;;;;8.950001;6.2;;;;;;;8.8;49.54395;95842.46;;;;
2021/10/11 18:47:43;;;;;;;8.950001;6.2;;;;;;;8.8;49.54395;95842.46;;;;
2021/10/11 18:48:44;;;;;;;8.950001;6.2;;;;;;;8.8;49.54395;95842.46;;;;
2021/10/11 18:49:45;;;;;;;8.950001;6.2;;;;;;;8.8;49.54395;95842.46;;;;
2021/10/11 18:50:45;;;;;;;8.250002;6.000001;;;;;;;8.66;49.97949;95846.22;;;;
2021/10/11 18:51:46;;;;;;;8.250002;6.000001;;;;;;;8.66;49.97949;95846.22;;;;
2021/10/11 18:52:47;;;;;;;8.250002;6.000001;;;;;;;8.66;49.97949;95846.22;;;;
2021/10/11 18:53:47;;;;;;;8.250002;6.000001;;;;;;;8.66;49.97949;95846.22;;;;
2021/10/11 18:54:49;;;;;;;8.250002;6.000001;;;;;;;8.66;49.97949;95846.22;;;;
2021/10/11 18:55:49;;;;;;;8.250002;6.000001;;;;;;;8.66;49.97949;95846.22;;;;
2021/10/11 18:56:50;;;;;;;8.250002;6.000001;;;;;;;8.66;49.97949;95846.22;;;;
2021/10/11 18:57:50;;;;;;;8.250002;6.000001;;;;;;;8.66;49.97949;95846.22;;;;
2021/10/11 18:58:51;;;;;;;8.250002;6.000001;;;;;;;8.66;49.97949;95846.22;;;;
2021/10/11 18:59:52;;;;;;;8.250002;6.000001;;;;;;;8.66;49.97949;95846.22;;;;
2021/10/11 19:00:52;;;;;;;8.250002;6.000001;;;;;;;8.66;49.97949;95846.22;;;;
2021/10/11 19:01:55;;;;;;;10.55;6.749999;;;;;;;8.54;50.47852;95856.91;;;;
2021/10/11 19:02:56;;;;;;;10.55;6.749999;;;;;;;8.54;50.47852;95856.91;;;;
2021/10/11 19:03:56;;;;;;;10.55;6.749999;;;;;;;8.54;50.47852;95856.91;;;;
2021/10/11 19:04:58;;;;;;;10.55;6.749999;;;;;;;8.54;50.47852;95856.91;;;;
2021/10/11 19:05:58;;;;;;;10.55;6.749999;;;;;;;8.54;50.47852;95856.91;;;;
2021/10/11 19:06:59;;;;;;;10.55;6.749999;;;;;;;8.54;50.47852;95856.91;;;;
2021/10/11 19:08:00;;;;;;;10.55;6.749999;;;;;;;8.54;50.47852;95856.91;;;;
2021/10/11 19:09:01;;;;;;;10.55;6.749999;;;;;;;8.54;50.47852;95856.91;;;;
2021/10/11 19:10:03;;;;;;;10.55;6.749999;;;;;;;8.54;50.47852;95856.91;;;;
2021/10/11 19:11:07;;;;;;;10.55;6.749999;;;;;;;8.54;50.47852;95856.91;;;;
2021/10/11 19:12:08;;;;;;;9.349999;6.8;;;;;;;8.43;50.78809;95864.68;;;;
2021/10/11 19:13:13;;;;;;;9.349999;6.8;;;;;;;8.43;50.78809;95864.68;;;;
2021/10/11 19:14:13;;;;;;;9.349999;6.8;;;;;;;8.43;50.78809;95864.68;;;;
2021/10/11 19:15:15;;;;;;;9.349999;6.8;;;;;;;8.43;50.78809;95864.68;;;;
2021/10/11 19:16:15;;;;;;;9.349999;6.8;;;;;;;8.43;50.78809;95864.68;;;;
2021/10/11 19:17:16;;;;;;;9.349999;6.8;;;;;;;8.43;50.78809;95864.68;;;;
2021/10/11 19:18:16;;;;;;;9.349999;6.8;;;;;;;8.43;50.78809;95864.68;;;;
2021/10/11 19:19:17;;;;;;;9.349999;6.8;;;;;;;8.43;50.78809;95864.68;;;;
2021/10/11 19:20:17;;;;;;;9.349999;6.8;;;;;;;8.43;50.78809;95864.68;;;;
2021/10/11 19:21:18;;;;;;;9.349999;6.8;;;;;;;8.43;50.78809;95864.68;;;;
2021/10/11 19:22:21;;;;;;;9.349999;6.8;;;;;;;8.43;50.78809;95864.68;;;;
2021/10/11 19:23:21;;;;;;;10.5;6.649999;;;;;;;8.24;51.2793;95868.19;;;;
2021/10/11 19:24:22;;;;;;;10.5;6.649999;;;;;;;8.24;51.2793;95868.19;;;;
2021/10/11 19:25:23;;;;;;;10.5;6.649999;;;;;;;8.24;51.2793;95868.19;;;;
2021/10/11 19:26:23;;;;;;;10.5;6.649999;;;;;;;8.24;51.2793;95868.19;;;;
2021/10/11 19:27:25;;;;;;;10.5;6.649999;;;;;;;8.24;51.2793;95868.19;;;;
2021/10/11 19:28:26;;;;;;;10.5;6.649999;;;;;;;8.24;51.2793;95868.19;;;;
2021/10/11 19:29:26;;;;;;;10.5;6.649999;;;;;;;8.24;51.2793;95868.19;;;;
2021/10/11 19:30:27;;;;;;;10.5;6.649999;;;;;;;8.24;51.2793;95868.19;;;;
2021/10/11 19:31:28;;;;;;;10.5;6.649999;;;;;;;8.24;51.2793;95868.19;;;;
2021/10/11 19:32:29;;;;;;;10.5;6.649999;;;;;;;8.24;51.2793;95868.19;;;;
2021/10/11 19:33:30;;;;;;;13.2;10.05;;;;;;;7.99;51.60449;95847.78;;;;
2021/10/11 19:34:30;;;;;;;13.2;10.05;;;;;;;7.99;51.60449;95847.78;;;;
2021/10/11 19:35:31;;;;;;;13.2;10.05;;;;;;;7.99;51.60449;95847.78;;;;
2021/10/11 19:36:31;;;;;;;13.2;10.05;;;;;;;7.99;51.60449;95847.78;;;;
2021/10/11 19:37:32;;;;;;;13.2;10.05;;;;;;;7.99;51.60449;95847.78;;;;
2021/10/11 19:38:33;;;;;;;13.2;10.05;;;;;;;7.99;51.60449;95847.78;;;;
2021/10/11 19:39:34;;;;;;;13.2;10.05;;;;;;;7.99;51.60449;95847.78;;;;
2021/10/11 19:40:38;;;;;;;13.2;10.05;;;;;;;7.99;51.60449;95847.78;;;;
2021/10/11 19:41:42;;;;;;;13.2;10.05;;;;;;;7.99;51.60449;95847.78;;;;
2021/10/11 19:42:42;;;;;;;13.2;10.05;;;;;;;7.99;51.60449;95847.78;;;;
2021/10/11 19:43:43;;;;;;;13.2;10.05;;;;;;;7.99;51.60449;95847.78;;;;
2021/10/11 19:44:44;;;;;;;18.65;12.7;;;;;;;7.65;52.12109;95867.18;;;;
2021/10/11 19:45:45;;;;;;;18.65;12.7;;;;;;;7.65;52.12109;95867.18;;;;
2021/10/11 19:46:45;;;;;;;18.65;12.7;;;;;;;7.65;52.12109;95867.18;;;;
2021/10/11 19:47:46;;;;;;;18.65;12.7;;;;;;;7.65;52.12109;95867.18;;;;
2021/10/11 19:48:47;;;;;;;18.65;12.7;;;;;;;7.65;52.12109;95867.18;;;;
2021/10/11 19:49:50;;;;;;;18.65;12.7;;;;;;;7.65;52.12109;95867.18;;;;
2021/10/11 19:50:51;;;;;;;18.65;12.7;;;;;;;7.65;52.12109;95867.18;;;;
2021/10/11 19:51:52;;;;;;;18.65;12.7;;;;;;;7.65;52.12109;95867.18;;;;
2021/10/11 19:52:52;;;;;;;18.65;12.7;;;;;;;7.65;52.12109;95867.18;;;;
2021/10/11 19:53:53;;;;;;;18.65;12.7;;;;;;;7.65;52.12109;95867.18;;;;
2021/10/11 19:54:53;;;;;;;11.65;7.750001;;;;;;;7.41;52.56152;95857.39;;;;
2021/10/11 19:55:54;;;;;;;11.65;7.750001;;;;;;;7.41;52.56152;95857.39;;;;
2021/10/11 19:56:54;;;;;;;11.65;7.750001;;;;;;;7.41;52.56152;95857.39;;;;
2021/10/11 19:57:56;;;;;;;11.65;7.750001;;;;;;;7.41;52.56152;95857.39;;;;
2021/10/11 19:58:58;;;;;;;11.65;7.750001;;;;;;;7.41;52.56152;95857.39;;;;
2021/10/11 19:59:59;;;;;;;11.65;7.750001;;;;;;;7.41;52.56152;95857.39;;;;
2021/10/11 20:05:27;;;;;;;11.35;7.699999;;;;;;;7.21;52.90039;95853.93;;;;
2021/10/11 20:06:28;;;;;;;11.35;7.699999;;;;;;;7.21;52.90039;95853.93;;;;
2021/10/11 20:07:29;;;;;;;11.35;7.699999;;;;;;;7.21;52.90039;95853.93;;;;
2021/10/11 20:08:29;;;;;;;11.35;7.699999;;;;;;;7.21;52.90039;95853.93;;;;
2021/10/11 20:09:30;;;;;;;11.35;7.699999;;;;;;;7.21;52.90039;95853.93;;;;
2021/10/11 20:10:30;;;;;;;11.35;7.699999;;;;;;;7.21;52.90039;95853.93;;;;
2021/10/11 20:11:31;;;;;;;11.35;7.699999;;;;;;;7.21;52.90039;95853.93;;;;
2021/10/11 20:12:32;;;;;;;11.35;7.699999;;;;;;;7.21;52.90039;95853.93;;;;
2021/10/11 20:13:34;;;;;;;11.35;7.699999;;;;;;;7.21;52.90039;95853.93;;;;
2021/10/11 20:14:34;;;;;;;11.35;7.699999;;;;;;;7.21;52.90039;95853.93;;;;
2021/10/11 20:15:37;;;;;;;11.35;7.699999;;;;;;;7.21;52.90039;95853.93;;;;
2021/10/11 20:16:37;;;;;;;14;8.299999;;;;;;;7.01;53.44141;95847.14;;;;
2021/10/11 20:17:38;;;;;;;14;8.299999;;;;;;;7.01;53.44141;95847.14;;;;
2021/10/11 20:18:39;;;;;;;14;8.299999;;;;;;;7.01;53.44141;95847.14;;;;
2021/10/11 20:19:39;;;;;;;14;8.299999;;;;;;;7.01;53.44141;95847.14;;;;
2021/10/11 20:20:40;;;;;;;14;8.299999;;;;;;;7.01;53.44141;95847.14;;;;
2021/10/11 20:21:40;;;;;;;14;8.299999;;;;;;;7.01;53.44141;95847.14;;;;
2021/10/11 20:22:41;;;;;;;14;8.299999;;;;;;;7.01;53.44141;95847.14;;;;
2021/10/11 20:23:42;;;;;;;14;8.299999;;;;;;;7.01;53.44141;95847.14;;;;
2021/10/11 20:24:43;;;;;;;14;8.299999;;;;;;;7.01;53.44141;95847.14;;;;
2021/10/11 20:25:43;;;;;;;14;8.299999;;;;;;;7.01;53.44141;95847.14;;;;
2021/10/11 20:26:44;;;;;;;13.95;8.900002;;;;;;;6.88;53.74707;95852.86;;;;
2021/10/11 20:27:44;;;;;;;13.95;8.900002;;;;;;;6.88;53.74707;95852.86;;;;
2021/10/11 20:28:45;;;;;;;13.95;8.900002;;;;;;;6.88;53.74707;95852.86;;;;
2021/10/11 20:29:45;;;;;;;13.95;8.900002;;;;;;;6.88;53.74707;95852.86;;;;
2021/10/11 20:30:46;;;;;;;13.95;8.900002;;;;;;;6.88;53.74707;95852.86;;;;
2021/10/11 20:31:46;;;;;;;13.95;8.900002;;;;;;;6.88;53.74707;95852.86;;;;
2021/10/11 20:32:47;;;;;;;13.95;8.900002;;;;;;;6.88;53.74707;95852.86;;;;
2021/10/11 20:33:48;;;;;;;13.95;8.900002;;;;;;;6.88;53.74707;95852.86;;;;
2021/10/11 20:34:48;;;;;;;13.95;8.900002;;;;;;;6.88;53.74707;95852.86;;;;
2021/10/11 20:35:49;;;;;;;13.95;8.900002;;;;;;;6.88;53.74707;95852.86;;;;
2021/10/11 20:36:50;;;;;;;13.95;8.900002;;;;;;;6.88;53.74707;95852.86;;;;
2021/10/11 20:37:50;;;;;;;12.5;8.45;;;;;;;6.72;54.07813;95842.97;;;;
2021/10/11 20:38:52;;;;;;;12.5;8.45;;;;;;;6.72;54.07813;95842.97;;;;
2021/10/11 20:39:54;;;;;;;12.5;8.45;;;;;;;6.72;54.07813;95842.97;;;;
2021/10/11 20:40:54;;;;;;;12.5;8.45;;;;;;;6.72;54.07813;95842.97;;;;
2021/10/11 20:41:55;;;;;;;12.5;8.45;;;;;;;6.72;54.07813;95842.97;;;;
2021/10/11 20:42:56;;;;;;;12.5;8.45;;;;;;;6.72;54.07813;95842.97;;;;
2021/10/11 20:43:56;;;;;;;12.5;8.45;;;;;;;6.72;54.07813;95842.97;;;;
2021/10/11 20:44:57;;;;;;;12.5;8.45;;;;;;;6.72;54.07813;95842.97;;;;
2021/10/11 20:45:57;;;;;;;12.5;8.45;;;;;;;6.72;54.07813;95842.97;;;;
2021/10/11 20:46:59;;;;;;;12.5;8.45;;;;;;;6.72;54.07813;95842.97;;;;
2021/10/11 20:48:00;;;;;;;16.95;10.4;;;;;;;6.64;54.5166;95843.95;;;;
2021/10/11 20:49:00;;;;;;;16.95;10.4;;;;;;;6.64;54.5166;95843.95;;;;
2021/10/11 20:50:01;;;;;;;16.95;10.4;;;;;;;6.64;54.5166;95843.95;;;;
2021/10/11 20:51:02;;;;;;;16.95;10.4;;;;;;;6.64;54.5166;95843.95;;;;
2021/10/11 20:52:03;;;;;;;16.95;10.4;;;;;;;6.64;54.5166;95843.95;;;;
2021/10/11 20:53:03;;;;;;;16.95;10.4;;;;;;;6.64;54.5166;95843.95;;;;
2021/10/11 20:54:04;;;;;;;16.95;10.4;;;;;;;6.64;54.5166;95843.95;;;;
2021/10/11 20:55:04;;;;;;;16.95;10.4;;;;;;;6.64;54.5166;95843.95;;;;
2021/10/11 20:56:05;;;;;;;16.95;10.4;;;;;;;6.64;54.5166;95843.95;;;;
2021/10/11 20:57:06;;;;;;;16.95;10.4;;;;;;;6.64;54.5166;95843.95;;;;
2021/10/11 20:58:08;;;;;;;16.95;10.4;;;;;;;6.64;54.5166;95843.95;;;;
2021/10/11 20:59:09;;;;;;;15.6;10.5;;;;;;;6.87;54.62988;95849.84;;;;
2021/10/11 21:00:09;;;;;;;15.6;10.5;;;;;;;6.87;54.62988;95849.84;;;;
2021/10/11 21:01:11;;;;;;;15.6;10.5;;;;;;;6.87;54.62988;95849.84;;;;
2021/10/11 21:02:12;;;;;;;15.6;10.5;;;;;;;6.87;54.62988;95849.84;;;;
2021/10/11 21:03:12;;;;;;;15.6;10.5;;;;;;;6.87;54.62988;95849.84;;;;
2021/10/11 21:04:14;;;;;;;15.6;10.5;;;;;;;6.87;54.62988;95849.84;;;;
2021/10/11 21:05:14;;;;;;;15.6;10.5;;;;;;;6.87;54.62988;95849.84;;;;
2021/10/11 21:06:15;;;;;;;15.6;10.5;;;;;;;6.87;54.62988;95849.84;;;;
2021/10/11 21:07:15;;;;;;;15.6;10.5;;;;;;;6.87;54.62988;95849.84;;;;
2021/10/11 21:08:16;;;;;;;15.6;10.5;;;;;;;6.87;54.62988;95849.84;;;;
2021/10/11 21:09:17;;;;;;;14.8;10.85;;;;;;;7.27;54.64941;95845.88;;;;
2021/10/11 21:10:17;;;;;;;14.8;10.85;;;;;;;7.27;54.64941;95845.88;;;;
2021/10/11 21:11:18;;;;;;;14.8;10.85;;;;;;;7.27;54.64941;95845.88;;;;
2021/10/11 21:12:18;;;;;;;14.8;10.85;;;;;;;7.27;54.64941;95845.88;;;;
2021/10/11 21:13:19;;;;;;;14.8;10.85;;;;;;;7.27;54.64941;95845.88;;;;
2021/10/11 21:14:20;;;;;;;14.8;10.85;;;;;;;7.27;54.64941;95845.88;;;;
2021/10/11 21:15:20;;;;;;;14.8;10.85;;;;;;;7.27;54.64941;95845.88;;;;
2021/10/11 21:16:22;;;;;;;14.8;10.85;;;;;;;7.27;54.64941;95845.88;;;;
2021/10/11 21:17:23;;;;;;;14.8;10.85;;;;;;;7.27;54.64941;95845.88;;;;
2021/10/11 21:18:24;;;;;;;14.8;10.85;;;;;;;7.27;54.64941;95845.88;;;;
2021/10/11 21:19:24;;;;;;;14.8;10.85;;;;;;;7.27;54.64941;95845.88;;;;
2021/10/11 21:20:25;;;;;;;14.8;10.85;;;;;;;7.27;54.64941;95845.88;;;;
2021/10/11 21:21:26;;;;;;;14.8;10.85;;;;;;;7.27;54.64941;95845.88;;;;
2021/10/11 21:22:26;;;;;;;14.8;10.85;;;;;;;7.27;54.64941;95845.88;;;;
2021/10/11 21:23:27;;;;;;;14.8;10.85;;;;;;;7.27;54.64941;95845.88;;;;
2021/10/11 21:24:27;;;;;;;14.8;10.85;;;;;;;7.27;54.64941;95845.88;;;;
2021/10/11 21:25:28;;;;;;;14.8;10.85;;;;;;;7.27;54.64941;95845.88;;;;
2021/10/11 21:26:28;;;;;;;14.8;10.85;;;;;;;7.27;54.64941;95845.88;;;;
2021/10/11 21:27:29;;;;;;;14.8;10.85;;;;;;;7.27;54.64941;95845.88;;;;
2021/10/11 21:28:29;;;;;;;14.8;10.85;;;;;;;7.27;54.64941;95845.88;;;;
2021/10/11 21:29:30;;;;;;;14.8;10.85;;;;;;;7.27;54.64941;95845.88;;;;
2021/10/11 21:30:30;;;;;;;14.8;10.85;;;;;;;7.27;54.64941;95845.88;;;;
2021/10/11 21:31:31;;;;;;;18.75;13.3;;;;;;;7.99;54.96484;95845.6;;;;
2021/10/11 21:32:32;;;;;;;18.75;13.3;;;;;;;7.99;54.96484;95845.6;;;;
2021/10/11 21:33:33;;;;;;;18.75;13.3;;;;;;;7.99;54.96484;95845.6;;;;
2021/10/11 21:34:33;;;;;;;18.75;13.3;;;;;;;7.99;54.96484;95845.6;;;;
2021/10/11 21:35:33;;;;;;;18.75;13.3;;;;;;;7.99;54.96484;95845.6;;;;
2021/10/11 21:36:34;;;;;;;18.75;13.3;;;;;;;7.99;54.96484;95845.6;;;;
2021/10/11 21:37:35;;;;;;;18.75;13.3;;;;;;;7.99;54.96484;95845.6;;;;
2021/10/11 21:38:36;;;;;;;18.75;13.3;;;;;;;7.99;54.96484;95845.6;;;;
2021/10/11 21:39:36;;;;;;;18.75;13.3;;;;;;;7.99;54.96484;95845.6;;;;
2021/10/11 21:40:37;;;;;;;18.75;13.3;;;;;;;7.99;54.96484;95845.6;;;;
2021/10/11 21:41:38;;;;;;;21.45;14.15;;;;;;;7.84;55.5127;95826.59;;;;
2021/10/11 21:42:38;;;;;;;21.45;14.15;;;;;;;7.84;55.5127;95826.59;;;;
2021/10/11 21:43:39;;;;;;;21.45;14.15;;;;;;;7.84;55.5127;95826.59;;;;
2021/10/11 21:44:40;;;;;;;21.45;14.15;;;;;;;7.84;55.5127;95826.59;;;;
2021/10/11 21:45:40;;;;;;;21.45;14.15;;;;;;;7.84;55.5127;95826.59;;;;
2021/10/11 21:46:42;;;;;;;21.45;14.15;;;;;;;7.84;55.5127;95826.59;;;;
2021/10/11 21:47:42;;;;;;;21.45;14.15;;;;;;;7.84;55.5127;95826.59;;;;
2021/10/11 21:48:43;;;;;;;21.45;14.15;;;;;;;7.84;55.5127;95826.59;;;;
2021/10/11 21:49:43;;;;;;;21.45;14.15;;;;;;;7.84;55.5127;95826.59;;;;
2021/10/11 21:50:44;;;;;;;21.45;14.15;;;;;;;7.84;55.5127;95826.59;;;;
2021/10/11 21:51:44;;;;;;;21.45;14.15;;;;;;;7.84;55.5127;95826.59;;;;
2021/10/11 21:52:45;;;;;;;22.3;14.75;;;;;;;7.85;55.99609;95823.69;;;;
2021/10/11 21:53:45;;;;;;;22.3;14.75;;;;;;;7.85;55.99609;95823.69;;;;
2021/10/11 21:54:46;;;;;;;22.3;14.75;;;;;;;7.85;55.99609;95823.69;;;;
2021/10/11 21:55:47;;;;;;;22.3;14.75;;;;;;;7.85;55.99609;95823.69;;;;
2021/10/11 21:56:48;;;;;;;22.3;14.75;;;;;;;7.85;55.99609;95823.69;;;;
2021/10/11 21:57:48;;;;;;;22.3;14.75;;;;;;;7.85;55.99609;95823.69;;;;
2021/10/11 21:58:49;;;;;;;22.3;14.75;;;;;;;7.85;55.99609;95823.69;;;;
2021/10/11 21:59:50;;;;;;;22.3;14.75;;;;;;;7.85;55.99609;95823.69;;;;
2021/10/11 22:00:50;;;;;;;22.3;14.75;;;;;;;7.85;55.99609;95823.69;;;;
2021/10/11 22:01:53;;;;;;;22.3;14.75;;;;;;;7.85;55.99609;95823.69;;;;
2021/10/11 22:02:54;;;;;;;21.95;15.35;;;;;;;8.1;56.24121;95828.85;;;;
2021/10/11 22:03:54;;;;;;;21.95;15.35;;;;;;;8.1;56.24121;95828.85;;;;
2021/10/11 22:04:54;;;;;;;21.95;15.35;;;;;;;8.1;56.24121;95828.85;;;;
2021/10/11 22:05:55;;;;;;;21.95;15.35;;;;;;;8.1;56.24121;95828.85;;;;
2021/10/11 22:06:56;;;;;;;21.95;15.35;;;;;;;8.1;56.24121;95828.85;;;;
2021/10/11 22:07:57;;;;;;;21.95;15.35;;;;;;;8.1;56.24121;95828.85;;;;
2021/10/11 22:08:57;;;;;;;21.95;15.35;;;;;;;8.1;56.24121;95828.85;;;;
2021/10/11 22:10:02;;;;;;;21.95;15.35;;;;;;;8.1;56.24121;95828.85;;;;
2021/10/11 22:11:02;;;;;;;21.95;15.35;;;;;;;8.1;56.24121;95828.85;;;;
2021/10/11 22:12:03;;;;;;;21.95;15.35;;;;;;;8.1;56.24121;95828.85;;;;
2021/10/11 22:13:05;;;;;;;21.95;15.35;;;;;;;8.1;56.24121;95828.85;;;;
2021/10/11 22:14:06;;;;;;;21.95;15.35;;;;;;;8.1;56.24121;95828.85;;;;
2021/10/11 22:15:07;;;;;;;21.95;15.35;;;;;;;8.1;56.24121;95828.85;;;;
2021/10/11 22:16:09;;;;;;;21.95;15.35;;;;;;;8.1;56.24121;95828.85;;;;
2021/10/11 22:17:09;;;;;;;21.95;15.35;;;;;;;8.1;56.24121;95828.85;;;;
2021/10/11 22:18:10;;;;;;;21.95;15.35;;;;;;;8.1;56.24121;95828.85;;;;
2021/10/11 22:19:10;;;;;;;21.95;15.35;;;;;;;8.1;56.24121;95828.85;;;;
2021/10/11 22:20:11;;;;;;;21.95;15.35;;;;;;;8.1;56.24121;95828.85;;;;
2021/10/11 22:21:11;;;;;;;21.95;15.35;;;;;;;8.1;56.24121;95828.85;;;;
2021/10/11 22:22:12;;;;;;;21.95;15.35;;;;;;;8.1;56.24121;95828.85;;;;
2021/10/11 22:23:14;;;;;;;21.95;15.35;;;;;;;8.1;56.24121;95828.85;;;;
2021/10/11 22:24:15;;;;;;;30.9;21.5;;;;;;;8.4;57.11426;95808.18;;;;
2021/10/11 22:25:16;;;;;;;30.9;21.5;;;;;;;8.4;57.11426;95808.18;;;;
2021/10/11 22:26:17;;;;;;;30.9;21.5;;;;;;;8.4;57.11426;95808.18;;;;
2021/10/11 22:27:17;;;;;;;30.9;21.5;;;;;;;8.4;57.11426;95808.18;;;;
2021/10/11 22:28:18;;;;;;;30.9;21.5;;;;;;;8.4;57.11426;95808.18;;;;
2021/10/11 22:29:18;;;;;;;30.9;21.5;;;;;;;8.4;57.11426;95808.18;;;;
2021/10/11 22:30:19;;;;;;;30.9;21.5;;;;;;;8.4;57.11426;95808.18;;;;
2021/10/11 22:31:21;;;;;;;30.9;21.5;;;;;;;8.4;57.11426;95808.18;;;;
2021/10/11 22:32:22;;;;;;;30.9;21.5;;;;;;;8.4;57.11426;95808.18;;;;
2021/10/11 22:33:23;;;;;;;30.9;21.5;;;;;;;8.4;57.11426;95808.18;;;;
2021/10/11 22:34:23;;;;;;;30.9;21.5;;;;;;;8.4;57.11426;95808.18;;;;
2021/10/11 22:35:24;;;;;;;30.7;21.75;;;;;;;8.4;57.74707;95800.92;;;;
2021/10/11 22:36:25;;;;;;;30.7;21.75;;;;;;;8.4;57.74707;95800.92;;;;
2021/10/11 22:37:26;;;;;;;30.7;21.75;;;;;;;8.4;57.74707;95800.92;;;;
2021/10/11 22:38:26;;;;;;;30.7;21.75;;;;;;;8.4;57.74707;95800.92;;;;
2021/10/11 22:39:27;;;;;;;30.7;21.75;;;;;;;8.4;57.74707;95800.92;;;;
2021/10/11 22:40:27;;;;;;;30.7;21.75;;;;;;;8.4;57.74707;95800.92;;;;
2021/10/11 22:41:28;;;;;;;30.7;21.75;;;;;;;8.4;57.74707;95800.92;;;;
2021/10/11 22:42:28;;;;;;;30.7;21.75;;;;;;;8.4;57.74707;95800.92;;;;
2021/10/11 22:43:29;;;;;;;30.7;21.75;;;;;;;8.4;57.74707;95800.92;;;;
2021/10/11 22:44:29;;;;;;;30.7;21.75;;;;;;;8.4;57.74707;95800.92;;;;
2021/10/11 22:45:30;;;;;;;32.2;23.15;;;;;;;8.37;58.41699;95803.11;;;;
2021/10/11 22:46:30;;;;;;;32.2;23.15;;;;;;;8.37;58.41699;95803.11;;;;
2021/10/11 22:47:31;;;;;;;32.2;23.15;;;;;;;8.37;58.41699;95803.11;;;;
2021/10/11 22:48:31;;;;;;;32.2;23.15;;;;;;;8.37;58.41699;95803.11;;;;
2021/10/11 22:49:32;;;;;;;32.2;23.15;;;;;;;8.37;58.41699;95803.11;;;;
2021/10/11 22:50:32;;;;;;;32.2;23.15;;;;;;;8.37;58.41699;95803.11;;;;
2021/10/11 22:51:34;;;;;;;32.2;23.15;;;;;;;8.37;58.41699;95803.11;;;;
2021/10/11 22:52:41;;;;;;;32.2;23.15;;;;;;;8.37;58.41699;95803.11;;;;
2021/10/11 22:53:43;;;;;;;32.2;23.15;;;;;;;8.37;58.41699;95803.11;;;;
2021/10/11 22:54:44;;;;;;;32.2;23.15;;;;;;;8.37;58.41699;95803.11;;;;
2021/10/11 22:55:45;;;;;;;32.2;23.15;;;;;;;8.37;58.41699;95803.11;;;;
2021/10/11 22:56:45;;;;;;;39.2;25.4;;;;;;;8.38;59.16699;95794.92;;;;
2021/10/11 22:57:46;;;;;;;39.2;25.4;;;;;;;8.38;59.16699;95794.92;;;;
2021/10/11 22:58:46;;;;;;;39.2;25.4;;;;;;;8.38;59.16699;95794.92;;;;
2021/10/11 22:59:47;;;;;;;39.2;25.4;;;;;;;8.38;59.16699;95794.92;;;;
2021/10/11 23:00:48;;;;;;;39.2;25.4;;;;;;;8.38;59.16699;95794.92;;;;
2021/10/11 23:01:48;;;;;;;39.2;25.4;;;;;;;8.38;59.16699;95794.92;;;;
2021/10/11 23:02:49;;;;;;;39.2;25.4;;;;;;;8.38;59.16699;95794.92;;;;
2021/10/11 23:03:49;;;;;;;39.2;25.4;;;;;;;8.38;59.16699;95794.92;;;;
2021/10/11 23:04:50;;;;;;;39.2;25.4;;;;;;;8.38;59.16699;95794.92;;;;
2021/10/11 23:05:50;;;;;;;39.2;25.4;;;;;;;8.38;59.16699;95794.92;;;;
2021/10/11 23:06:52;;;;;;;37.6;24.45;;;;;;;8.42;59.72852;95771.01;;;;
2021/10/11 23:07:53;;;;;;;37.6;24.45;;;;;;;8.42;59.72852;95771.01;;;;
2021/10/11 23:08:53;;;;;;;37.6;24.45;;;;;;;8.42;59.72852;95771.01;;;;
2021/10/11 23:09:54;;;;;;;37.6;24.45;;;;;;;8.42;59.72852;95771.01;;;;
2021/10/11 23:10:54;;;;;;;37.6;24.45;;;;;;;8.42;59.72852;95771.01;;;;
2021/10/11 23:11:56;;;;;;;37.6;24.45;;;;;;;8.42;59.72852;95771.01;;;;
2021/10/11 23:12:57;;;;;;;37.6;24.45;;;;;;;8.42;59.72852;95771.01;;;;
2021/10/11 23:13:57;;;;;;;37.6;24.45;;;;;;;8.42;59.72852;95771.01;;;;
2021/10/11 23:14:58;;;;;;;37.6;24.45;;;;;;;8.42;59.72852;95771.01;;;;
2021/10/11 23:15:58;;;;;;;37.6;24.45;;;;;;;8.42;59.72852;95771.01;;;;
2021/10/11 23:16:59;;;;;;;37.6;24.45;;;;;;;8.42;59.72852;95771.01;;;;
2021/10/11 23:17:59;;;;;;;41.65;26.9;;;;;;;8.47;60.26758;95785.71;;;;
2021/10/11 23:19:00;;;;;;;41.65;26.9;;;;;;;8.47;60.26758;95785.71;;;;
2021/10/11 23:20:00;;;;;;;41.65;26.9;;;;;;;8.47;60.26758;95785.71;;;;
2021/10/11 23:21:01;;;;;;;41.65;26.9;;;;;;;8.47;60.26758;95785.71;;;;
2021/10/11 23:22:02;;;;;;;41.65;26.9;;;;;;;8.47;60.26758;95785.71;;;;
2021/10/11 23:23:03;;;;;;;41.65;26.9;;;;;;;8.47;60.26758;95785.71;;;;
2021/10/11 23:24:03;;;;;;;41.65;26.9;;;;;;;8.47;60.26758;95785.71;;;;
2021/10/11 23:25:04;;;;;;;41.65;26.9;;;;;;;8.47;60.26758;95785.71;;;;
2021/10/11 23:26:06;;;;;;;41.65;26.9;;;;;;;8.47;60.26758;95785.71;;;;
2021/10/11 23:27:07;;;;;;;41.65;26.9;;;;;;;8.47;60.26758;95785.71;;;;
2021/10/11 23:28:07;;;;;;;46.55;28.35;;;;;;;8.49;60.67871;95786.33;;;;
2021/10/11 23:29:08;;;;;;;46.55;28.35;;;;;;;8.49;60.67871;95786.33;;;;
2021/10/11 23:30:09;;;;;;;46.55;28.35;;;;;;;8.49;60.67871;95786.33;;;;
2021/10/11 23:31:10;;;;;;;46.55;28.35;;;;;;;8.49;60.67871;95786.33;;;;
2021/10/11 23:32:11;;;;;;;46.55;28.35;;;;;;;8.49;60.67871;95786.33;;;;
2021/10/11 23:33:12;;;;;;;46.55;28.35;;;;;;;8.49;60.67871;95786.33;;;;
2021/10/11 23:34:12;;;;;;;46.55;28.35;;;;;;;8.49;60.67871;95786.33;;;;
2021/10/11 23:35:13;;;;;;;46.55;28.35;;;;;;;8.49;60.67871;95786.33;;;;
2021/10/11 23:36:14;;;;;;;46.55;28.35;;;;;;;8.49;60.67871;95786.33;;;;
2021/10/11 23:37:14;;;;;;;46.55;28.35;;;;;;;8.49;60.67871;95786.33;;;;
2021/10/11 23:38:15;;;;;;;46.55;28.35;;;;;;;8.49;60.67871;95786.33;;;;
2021/10/11 23:39:16;;;;;;;45.85;29.05;;;;;;;8.58;61.17285;95778.2;;;;
2021/10/11 23:40:16;;;;;;;45.85;29.05;;;;;;;8.58;61.17285;95778.2;;;;
2021/10/11 23:41:17;;;;;;;45.85;29.05;;;;;;;8.58;61.17285;95778.2;;;;
2021/10/11 23:42:17;;;;;;;45.85;29.05;;;;;;;8.58;61.17285;95778.2;;;;
2021/10/11 23:43:18;;;;;;;45.85;29.05;;;;;;;8.58;61.17285;95778.2;;;;
2021/10/11 23:44:19;;;;;;;45.85;29.05;;;;;;;8.58;61.17285;95778.2;;;;
2021/10/11 23:45:19;;;;;;;45.85;29.05;;;;;;;8.58;61.17285;95778.2;;;;
2021/10/11 23:46:20;;;;;;;45.85;29.05;;;;;;;8.58;61.17285;95778.2;;;;
2021/10/11 23:47:20;;;;;;;45.85;29.05;;;;;;;8.58;61.17285;95778.2;;;;
2021/10/11 23:48:21;;;;;;;45.85;29.05;;;;;;;8.58;61.17285;95778.2;;;;
2021/10/11 23:49:21;;;;;;;42.4;27.85;;;;;;;8.59;61.77148;95773.24;;;;
2021/10/11 23:50:22;;;;;;;42.4;27.85;;;;;;;8.59;61.77148;95773.24;;;;
2021/10/11 23:51:23;;;;;;;42.4;27.85;;;;;;;8.59;61.77148;95773.24;;;;
2021/10/11 23:52:23;;;;;;;42.4;27.85;;;;;;;8.59;61.77148;95773.24;;;;
2021/10/11 23:53:24;;;;;;;42.4;27.85;;;;;;;8.59;61.77148;95773.24;;;;
2021/10/11 23:54:24;;;;;;;42.4;27.85;;;;;;;8.59;61.77148;95773.24;;;;
2021/10/11 23:55:25;;;;;;;42.4;27.85;;;;;;;8.59;61.77148;95773.24;;;;
2021/10/11 23:56:25;;;;;;;42.4;27.85;;;;;;;8.59;61.77148;95773.24;;;;
2021/10/11 23:57:26;;;;;;;42.4;27.85;;;;;;;8.59;61.77148;95773.24;;;;
2021/10/11 23:58:27;;;;;;;42.4;27.85;;;;;;;8.59;61.77148;95773.24;;;;
2021/10/11 23:59:27;;;;;;;42.4;27.85;;;;;;;8.59;61.77148;95773.24;;;;
